Highest pressure

Not for real navigation. The accuracy of this data is not assured See disclaimer for more information



ICAO NAME COUNTRY WIND Kt GUST Kt VIS m TEMP/DEW C BARO METAR
USRR Surgut Russia 0 0 7000 -38/-42 31.30 USRR 240430Z 00000KT 7000 NSC M38/M42 Q1060 R25/31//55 NOSIG RMK QFE789
USNN Nizhnevartovsk Russia 1 0 9999 -35/-38 31.27 USNN 240430Z VRB01KT CAVOK M35/M38 Q1059 R03/0///65 NOSIG RMK QFE790
USHH Hanty-Mansijsk Russia 2 0 9999 -32/-36 31.27 USHH 240430Z 13002KT CAVOK M32/M36 Q1059 R24/010060 NOSIG RMK QFE790
USTR 4 0 9999 -29/-32 31.18 USTR 240430Z 14004KT CAVOK M29/M32 Q1056 R12/CLRD65 NOSIG RMK QFE783/1044
UACP 3 0 9999 -32/-35 31.15 UACP 240430Z 08003KT CAVOK M32/M35 Q1055 R05/4/0556 NOSIG RMK QFE779/1039

Show more